Serenade Of The Seas — C6FV8 — position and weather

sailwx.info

Track history (hours):
 
Tides and Currents Weather Stations Pressure Air Temp Water Temp Dewpoint Dewpoint Depression Visibility Wind Speed Wind Dir Waves Ship Positions

Serenade Of The Seas

Operator: Royal Caribbean Cruises Ltd

Last reported at 2016-May-30 09:21 UTC. Time now 2016-May-31 03:57 UTC.
Position N 55°35' E 015°20'.

Length 294 m; draft 8.5 m.

Type: Ship. MMSI: 311492000.

Date/timePositionNaut miles runAvg speedWind from/ knotsBaromVisibWave heightAir tempDewpointWater temp
2016-May-30 09:21N 55°35' E 015°20'1721.2
2016-May-30 08:33N 55°27' E 014°54'2120.9
2016-May-30 07:34N 55°14' E 014°26'2121.0
2016-May-30 06:33N 54°60' E 013°58'2521.3
2016-May-30 05:22N 54°51' E 013°17'1720.9
2016-May-30 04:33N 54°47' E 012°48'2020.0
2016-May-30 03:34N 54°37' E 012°18'1717.1
2016-May-30 02:33N 54°25' E 011°57'2020.3
2016-May-30 01:34N 54°32' E 011°24'2020.0
2016-May-30 00:34N 54°41' E 010°54'1817.7
2016-May-29 23:34N 54°59' E 010°59'1918.6
2016-May-29 22:32N 55°17' E 011°03'2719.5
2016-May-29 21:10N 55°43' E 010°47'1218.9
2016-May-29 20:33N 55°54' E 010°54'2020.3
2016-May-29 19:32N 56°10' E 011°15'2820.0
2016-May-29 18:08N 56°20' E 012°03'1221.5
2016-May-29 17:33N 56°12' E 012°20'1818.3
2016-May-29 16:34N 55°59' E 012°42'1414.4
2016-May-29 15:33N 55°44' E 012°40'2 2.3
2016-May-29 14:33N 55°43' E 012°37'0 0.0
2016-May-29 13:33N 55°43' E 012°37'0 0.0
2016-May-29 12:33N 55°43' E 012°37'0 0.0
2016-May-29 11:33N 55°43' E 012°37'0 0.0
2016-May-29 10:33N 55°43' E 012°37'0 0.0
2016-May-29 09:33N 55°43' E 012°37'0 0.0
2016-May-29 08:33N 55°43' E 012°37'0 0.0
2016-May-29 07:33N 55°43' E 012°37'0 0.0
2016-May-29 06:33N 55°43' E 012°37'0 0.0
2016-May-29 05:33N 55°43' E 012°37'0 0.1
2016-May-29 04:33N 55°43' E 012°37'9 8.9
2016-May-29 03:33N 55°51' E 012°40'1312.6
2016-May-29 02:34N 56°04' E 012°37'1615.6
2016-May-29 01:33N 56°13' E 012°15'3715.7
2016-May-28 23:11N 56°05' E 011°09'1217.3
2016-May-28 22:30N 55°55' E 010°58'3315.4
2016-May-28 20:23N 55°23' E 011°02'1316.2
2016-May-28 19:33N 55°09' E 011°03'1616.5
2016-May-28 18:33N 54°54' E 010°54'1515.3
2016-May-28 17:33N 54°39' E 011°01'1717.3
2016-May-28 16:33N 54°32' E 011°28'1817.8
2016-May-28 15:33N 54°26' E 011°57'1515.1
2016-May-28 14:33N 54°36' E 012°16'2017.5
2016-May-28 13:26N 54°48' E 012°43'1717.6
2016-May-28 12:27N 54°54' E 013°11'3317.4
2016-May-28 10:33N 55°06' E 014°05'1817.6
2016-May-28 09:33N 55°20' E 014°24'1717.5
2016-May-28 08:33N 55°31' E 014°47'1817.5
2016-May-28 07:30N 55°39' E 015°17'1818.9
2016-May-28 06:33N 55°48' E 015°44'2221.7
2016-May-28 05:33N 55°60' E 016°17'27621.2
2016-May-27 16:33N 59°21' E 022°11'2922.0
2016-May-27 15:13N 59°34' E 023°02'1522.3
2016-May-27 14:33N 59°39' E 023°30'2222.2
2016-May-27 13:33N 59°45' E 024°12'60 4.5
2016-May-27 00:13N 59°59' E 026°09'1117.0
2016-May-26 23:33N 60°01' E 026°31'1916.7
2016-May-26 22:27N 60°01' E 027°08'1517.3
2016-May-26 21:33N 60°09' E 027°34'2020.0
2016-May-26 20:34N 60°08' E 028°14'2221.0
2016-May-26 19:32N 60°03' E 028°56'2814.1
2016-May-26 17:33N 59°57' E 029°51'10 9.8
2016-May-26 16:33N 59°57' E 030°10'0 0.4
2016-May-26 15:33N 59°57' E 030°11'0 0.0
2016-May-26 14:33N 59°57' E 030°11'0 0.0
2016-May-26 13:33N 59°57' E 030°11'0 0.0
2016-May-26 12:33N 59°57' E 030°11'0 0.0
2016-May-26 11:30N 59°57' E 030°11'0 0.0
2016-May-26 10:30N 59°57' E 030°11'0 0.0
2016-May-26 09:33N 59°57' E 030°11'0 0.0
2016-May-26 08:33N 59°57' E 030°11'0 0.0
2016-May-26 07:33N 59°57' E 030°11'0 0.0
2016-May-26 06:33N 59°57' E 030°11'0 0.0
2016-May-26 05:33N 59°57' E 030°11'0 0.0
2016-May-26 04:33N 59°57' E 030°11'0 0.0
2016-May-26 03:33N 59°57' E 030°11'4 3.8
2016-May-26 02:33N 59°56' E 030°04'10 9.7
2016-May-26 01:33N 59°59' E 029°45'1211.6
2016-May-26 00:32N 60°02' E 029°22'1616.0
2016-May-25 23:34N 60°02' E 028°51'1616.0
2016-May-25 22:34N 60°05' E 028°20'1716.7
2016-May-25 21:34N 60°11' E 027°48'1716.8
2016-May-25 20:34N 60°02' E 027°19'1615.8
2016-May-25 19:34N 59°59' E 026°48'1816.8
2016-May-25 18:28N 59°56' E 026°11'51 4.0
2016-May-25 05:33N 59°30' E 024°44'1713.9
2016-May-25 04:22N 59°40' E 024°18'1315.9
2016-May-25 03:33N 59°36' E 023°53'1716.3
2016-May-25 02:33N 59°32' E 023°22'1716.8
2016-May-25 01:32N 59°26' E 022°50'1616.5
2016-May-25 00:33N 59°23' E 022°19'2017.4
2016-May-24 23:24N 59°24' E 021°40'9813.9
2016-May-24 16:21N 59°23' E 018°27'7 8.5
2016-May-24 15:30N 59°21' E 018°13'2 0.3
2016-May-24 06:33N 59°20' E 018°09'23311.0
2016-May-23 09:27N 55°41' E 015°44'1921.9
2016-May-23 08:33N 55°31' E 015°14'2221.8
2016-May-23 07:34N 55°24' E 014°38'2222.0
2016-May-23 06:34N 55°06' E 014°14'2121.2
2016-May-23 05:33N 54°57' E 013°41'2221.7
2016-May-23 04:33N 54°49' E 013°06'2120.8
2016-May-23 03:33N 54°42' E 012°32'2019.8
2016-May-23 02:34N 54°26' E 012°11'2019.8
2016-May-23 01:33N 54°27' E 011°37'2121.0
2016-May-23 00:34N 54°37' E 011°05'1717.1
2016-May-22 23:33N 54°53' E 010°53'1918.8
2016-May-22 22:34N 55°10' E 011°03'4219.3
2016-May-22 20:23N 55°52' E 010°52'5218.6
2016-May-22 17:33N 56°14' E 012°17'1919.2
2016-May-22 16:33N 56°00' E 012°41'1616.1
2016-May-22 15:33N 55°44' E 012°40'2 2.1
2016-May-22 14:32N 55°43' E 012°37'0 0.0
2016-May-22 13:32N 55°43' E 012°37'0 0.0
2016-May-22 12:32N 55°43' E 012°37'0 0.0
2016-May-22 11:32N 55°43' E 012°37'0 0.0
2016-May-22 10:32N 55°43' E 012°37'0 0.0
2016-May-22 09:32N 55°43' E 012°37'0 0.0
2016-May-22 08:32N 55°43' E 012°37'0 0.0
2016-May-22 07:32N 55°43' E 012°37'0 0.0
2016-May-22 06:32N 55°43' E 012°37'0 0.0
2016-May-22 05:32N 55°43' E 012°37'0 0.0
2016-May-22 04:33N 55°43' E 012°37'8 8.2
2016-May-22 03:34N 55°51' E 012°41'1413.5
2016-May-22 02:33N 56°04' E 012°37'1515.1
2016-May-22 01:33N 56°13' E 012°15'1615.2
2016-May-22 00:30N 56°26' E 011°60'1617.2
2016-May-21 23:33N 56°42' E 011°53'1717.2
2016-May-21 22:33N 56°58' E 011°42'1716.9
2016-May-21 21:33N 57°14' E 011°31'1716.9
2016-May-21 20:33N 57°30' E 011°20'1515.3
2016-May-21 19:33N 57°40' E 010°60'1716.5
2016-May-21 18:33N 57°50' E 010°35'10817.7
2016-May-21 12:28N 57°40' E 007°13'2122.5
2016-May-21 11:33N 57°43' E 006°35'2222.0
2016-May-21 10:33N 57°57' E 006°03'2222.0
2016-May-21 09:33N 58°11' E 005°32'2121.6
2016-May-21 08:33N 58°26' E 005°02'2121.3
2016-May-21 07:33N 58°41' E 004°32'21819.8
2016-May-20 20:33N 62°18' E 004°51'  
Track history (hours):
 
Tides and Currents Weather Stations Pressure Air Temp Water Temp Dewpoint Dewpoint Depression Visibility Wind Speed Wind Dir Waves Ship Positions

Serenade Of The Seas

Operator: Royal Caribbean Cruises Ltd

Last reported at 2016-May-30 09:21 UTC. Time now 2016-May-31 03:57 UTC.
Position N 55°35' E 015°20'.

Length 294 m; draft 8.5 m.

Type: Ship. MMSI: 311492000.

Date/timePositionNaut miles runAvg speedWind from/ knotsBaromVisibWave heightAir tempDewpointWater temp
2016-May-30 09:21N 55°35' E 015°20'1721.2
2016-May-30 08:33N 55°27' E 014°54'2120.9
2016-May-30 07:34N 55°14' E 014°26'2121.0
2016-May-30 06:33N 54°60' E 013°58'2521.3
2016-May-30 05:22N 54°51' E 013°17'1720.9
2016-May-30 04:33N 54°47' E 012°48'2020.0
2016-May-30 03:34N 54°37' E 012°18'1717.1
2016-May-30 02:33N 54°25' E 011°57'2020.3
2016-May-30 01:34N 54°32' E 011°24'2020.0
2016-May-30 00:34N 54°41' E 010°54'1817.7
2016-May-29 23:34N 54°59' E 010°59'1918.6
2016-May-29 22:32N 55°17' E 011°03'2719.5
2016-May-29 21:10N 55°43' E 010°47'1218.9
2016-May-29 20:33N 55°54' E 010°54'2020.3
2016-May-29 19:32N 56°10' E 011°15'2820.0
2016-May-29 18:08N 56°20' E 012°03'1221.5
2016-May-29 17:33N 56°12' E 012°20'1818.3
2016-May-29 16:34N 55°59' E 012°42'1414.4
2016-May-29 15:33N 55°44' E 012°40'2 2.3
2016-May-29 14:33N 55°43' E 012°37'0 0.0
2016-May-29 13:33N 55°43' E 012°37'0 0.0
2016-May-29 12:33N 55°43' E 012°37'0 0.0
2016-May-29 11:33N 55°43' E 012°37'0 0.0
2016-May-29 10:33N 55°43' E 012°37'0 0.0
2016-May-29 09:33N 55°43' E 012°37'0 0.0
2016-May-29 08:33N 55°43' E 012°37'0 0.0
2016-May-29 07:33N 55°43' E 012°37'0 0.0
2016-May-29 06:33N 55°43' E 012°37'0 0.0
2016-May-29 05:33N 55°43' E 012°37'0 0.1
2016-May-29 04:33N 55°43' E 012°37'9 8.9
2016-May-29 03:33N 55°51' E 012°40'1312.6
2016-May-29 02:34N 56°04' E 012°37'1615.6
2016-May-29 01:33N 56°13' E 012°15'3715.7
2016-May-28 23:11N 56°05' E 011°09'1217.3
2016-May-28 22:30N 55°55' E 010°58'3315.4
2016-May-28 20:23N 55°23' E 011°02'1316.2
2016-May-28 19:33N 55°09' E 011°03'1616.5
2016-May-28 18:33N 54°54' E 010°54'1515.3
2016-May-28 17:33N 54°39' E 011°01'1717.3
2016-May-28 16:33N 54°32' E 011°28'1817.8
2016-May-28 15:33N 54°26' E 011°57'1515.1
2016-May-28 14:33N 54°36' E 012°16'2017.5
2016-May-28 13:26N 54°48' E 012°43'1717.6
2016-May-28 12:27N 54°54' E 013°11'3317.4
2016-May-28 10:33N 55°06' E 014°05'1817.6
2016-May-28 09:33N 55°20' E 014°24'1717.5
2016-May-28 08:33N 55°31' E 014°47'1817.5
2016-May-28 07:30N 55°39' E 015°17'1818.9
2016-May-28 06:33N 55°48' E 015°44'2221.7
2016-May-28 05:33N 55°60' E 016°17'27621.2
2016-May-27 16:33N 59°21' E 022°11'2922.0
2016-May-27 15:13N 59°34' E 023°02'1522.3
2016-May-27 14:33N 59°39' E 023°30'2222.2
2016-May-27 13:33N 59°45' E 024°12'60 4.5
2016-May-27 00:13N 59°59' E 026°09'1117.0
2016-May-26 23:33N 60°01' E 026°31'1916.7
2016-May-26 22:27N 60°01' E 027°08'1517.3
2016-May-26 21:33N 60°09' E 027°34'2020.0
2016-May-26 20:34N 60°08' E 028°14'2221.0
2016-May-26 19:32N 60°03' E 028°56'2814.1
2016-May-26 17:33N 59°57' E 029°51'10 9.8
2016-May-26 16:33N 59°57' E 030°10'0 0.4
2016-May-26 15:33N 59°57' E 030°11'0 0.0
2016-May-26 14:33N 59°57' E 030°11'0 0.0
2016-May-26 13:33N 59°57' E 030°11'0 0.0
2016-May-26 12:33N 59°57' E 030°11'0 0.0
2016-May-26 11:30N 59°57' E 030°11'0 0.0
2016-May-26 10:30N 59°57' E 030°11'0 0.0
2016-May-26 09:33N 59°57' E 030°11'0 0.0
2016-May-26 08:33N 59°57' E 030°11'0 0.0
2016-May-26 07:33N 59°57' E 030°11'0 0.0
2016-May-26 06:33N 59°57' E 030°11'0 0.0
2016-May-26 05:33N 59°57' E 030°11'0 0.0
2016-May-26 04:33N 59°57' E 030°11'0 0.0
2016-May-26 03:33N 59°57' E 030°11'4 3.8
2016-May-26 02:33N 59°56' E 030°04'10 9.7
2016-May-26 01:33N 59°59' E 029°45'1211.6
2016-May-26 00:32N 60°02' E 029°22'1616.0
2016-May-25 23:34N 60°02' E 028°51'1616.0
2016-May-25 22:34N 60°05' E 028°20'1716.7
2016-May-25 21:34N 60°11' E 027°48'1716.8
2016-May-25 20:34N 60°02' E 027°19'1615.8
2016-May-25 19:34N 59°59' E 026°48'1816.8
2016-May-25 18:28N 59°56' E 026°11'51 4.0
2016-May-25 05:33N 59°30' E 024°44'1713.9
2016-May-25 04:22N 59°40' E 024°18'1315.9
2016-May-25 03:33N 59°36' E 023°53'1716.3
2016-May-25 02:33N 59°32' E 023°22'1716.8
2016-May-25 01:32N 59°26' E 022°50'1616.5
2016-May-25 00:33N 59°23' E 022°19'2017.4
2016-May-24 23:24N 59°24' E 021°40'9813.9
2016-May-24 16:21N 59°23' E 018°27'7 8.5
2016-May-24 15:30N 59°21' E 018°13'2 0.3
2016-May-24 06:33N 59°20' E 018°09'23311.0
2016-May-23 09:27N 55°41' E 015°44'1921.9
2016-May-23 08:33N 55°31' E 015°14'2221.8
2016-May-23 07:34N 55°24' E 014°38'2222.0
2016-May-23 06:34N 55°06' E 014°14'2121.2
2016-May-23 05:33N 54°57' E 013°41'2221.7
2016-May-23 04:33N 54°49' E 013°06'2120.8
2016-May-23 03:33N 54°42' E 012°32'2019.8
2016-May-23 02:34N 54°26' E 012°11'2019.8
2016-May-23 01:33N 54°27' E 011°37'2121.0
2016-May-23 00:34N 54°37' E 011°05'1717.1
2016-May-22 23:33N 54°53' E 010°53'1918.8
2016-May-22 22:34N 55°10' E 011°03'4219.3
2016-May-22 20:23N 55°52' E 010°52'5218.6
2016-May-22 17:33N 56°14' E 012°17'1919.2
2016-May-22 16:33N 56°00' E 012°41'1616.1
2016-May-22 15:33N 55°44' E 012°40'2 2.1
2016-May-22 14:32N 55°43' E 012°37'0 0.0
2016-May-22 13:32N 55°43' E 012°37'0 0.0
2016-May-22 12:32N 55°43' E 012°37'0 0.0
2016-May-22 11:32N 55°43' E 012°37'0 0.0
2016-May-22 10:32N 55°43' E 012°37'0 0.0
2016-May-22 09:32N 55°43' E 012°37'0 0.0
2016-May-22 08:32N 55°43' E 012°37'0 0.0
2016-May-22 07:32N 55°43' E 012°37'0 0.0
2016-May-22 06:32N 55°43' E 012°37'0 0.0
2016-May-22 05:32N 55°43' E 012°37'0 0.0
2016-May-22 04:33N 55°43' E 012°37'8 8.2
2016-May-22 03:34N 55°51' E 012°41'1413.5
2016-May-22 02:33N 56°04' E 012°37'1515.1
2016-May-22 01:33N 56°13' E 012°15'1615.2
2016-May-22 00:30N 56°26' E 011°60'1617.2
2016-May-21 23:33N 56°42' E 011°53'1717.2
2016-May-21 22:33N 56°58' E 011°42'1716.9
2016-May-21 21:33N 57°14' E 011°31'1716.9
2016-May-21 20:33N 57°30' E 011°20'1515.3
2016-May-21 19:33N 57°40' E 010°60'1716.5
2016-May-21 18:33N 57°50' E 010°35'10817.7
2016-May-21 12:28N 57°40' E 007°13'2122.5
2016-May-21 11:33N 57°43' E 006°35'2222.0
2016-May-21 10:33N 57°57' E 006°03'2222.0
2016-May-21 09:33N 58°11' E 005°32'2121.6
2016-May-21 08:33N 58°26' E 005°02'2121.3
2016-May-21 07:33N 58°41' E 004°32'21819.8
2016-May-20 20:33N 62°18' E 004°51'  

Dump ship's entire track history